Time;durP1;ratioP1;P1;durP2;ratioP2;P2;SDS_P1;SDS_P2;PMS_P1;PMS_P2;Temp;Humidity;BMP_temperature;BMP_pressure;BME280_temperature;BME280_humidity;BME280_pressure;Samples;Min_cycle;Max_cycle;Signal;HPM_P1;HPM_P2
2021/05/09 00:00:15;;;;;;;37.23;16.95;;;;;;;7.38;53.91;100864.73;1759705;78;26199;-61
2021/05/09 00:02:46;;;;;;;34.38;16.90;;;;;;;7.40;53.97;100862.03;1785901;78;25825;-61
2021/05/09 00:05:15;;;;;;;37.73;17.55;;;;;;;7.42;54.04;100866.41;1804434;77;27769;-61
2021/05/09 00:07:45;;;;;;;40.52;17.10;;;;;;;7.44;54.19;100858.36;1819589;77;26401;-61
2021/05/09 00:10:16;;;;;;;36.80;17.62;;;;;;;7.44;54.21;100851.70;1769414;78;25881;-61
2021/05/09 00:12:48;;;;;;;33.58;17.25;;;;;;;7.47;54.27;100854.28;1772143;77;26474;-61
2021/05/09 00:15:22;;;;;;;35.05;16.40;;;;;;;7.48;54.33;100847.56;1783955;79;26539;-61
2021/05/09 00:17:50;;;;;;;34.83;15.80;;;;;;;7.49;54.42;100849.32;1792371;77;25875;-61
2021/05/09 00:20:19;;;;;;;38.50;17.20;;;;;;;7.51;54.49;100844.41;1795263;78;25981;-61
2021/05/09 00:22:48;;;;;;;33.38;17.52;;;;;;;7.53;54.55;100842.56;1774319;78;25840;-61
2021/05/09 00:25:16;;;;;;;30.27;16.95;;;;;;;7.56;54.59;100848.69;1736439;80;25939;-61
2021/05/09 00:27:45;;;;;;;37.00;17.57;;;;;;;7.57;54.69;100847.77;1766757;77;25780;-61
2021/05/09 00:30:16;;;;;;;33.75;16.40;;;;;;;7.60;54.78;100845.48;1784357;78;28570;-61
2021/05/09 00:32:45;;;;;;;38.00;17.82;;;;;;;7.63;54.81;100850.27;1788580;77;25838;-61
2021/05/09 00:35:13;;;;;;;39.30;17.87;;;;;;;7.66;54.84;100850.19;1785918;78;25887;-61
2021/05/09 00:37:43;;;;;;;40.75;18.12;;;;;;;7.68;54.84;100843.47;1823168;77;26697;-61
2021/05/09 00:40:12;;;;;;;36.65;19.40;;;;;;;7.65;54.84;100841.77;1802533;77;25799;-63
2021/05/09 00:42:40;;;;;;;41.68;19.07;;;;;;;7.63;55.01;100845.39;1794494;78;26284;-61
2021/05/09 00:45:10;;;;;;;40.90;18.40;;;;;;;7.63;55.08;100848.94;1794449;77;25853;-63
2021/05/09 00:47:38;;;;;;;35.80;16.42;;;;;;;7.64;55.14;100843.14;1791005;77;25869;-60
2021/05/09 00:50:09;;;;;;;35.63;18.20;;;;;;;7.64;55.10;100843.14;1804817;77;25937;-61
2021/05/09 00:52:39;;;;;;;39.30;17.45;;;;;;;7.63;55.18;100840.06;1786424;78;25765;-61
2021/05/09 00:55:10;;;;;;;37.73;18.00;;;;;;;7.58;55.17;100835.31;1787004;77;26882;-61
2021/05/09 00:57:42;;;;;;;44.03;19.02;;;;;;;7.56;55.24;100835.36;1817736;77;25723;-61
2021/05/09 01:00:15;;;;;;;40.75;19.90;;;;;;;7.53;55.34;100832.77;1749933;80;26369;-63
2021/05/09 01:02:45;;;;;;;38.70;18.32;;;;;;;7.53;55.52;100832.77;1790830;77;25989;-60
2021/05/09 01:05:14;;;;;;;37.73;18.97;;;;;;;7.53;55.55;100830.56;1780820;77;25905;-61
2021/05/09 01:07:43;;;;;;;38.60;19.30;;;;;;;7.52;55.61;100824.81;1813433;77;28223;-63
2021/05/09 01:10:16;;;;;;;41.50;18.98;;;;;;;7.46;55.67;100816.06;1807501;77;25786;-63
2021/05/09 01:12:44;;;;;;;39.73;18.87;;;;;;;7.53;55.74;100827.89;1801338;77;25776;-61
2021/05/09 01:15:13;;;;;;;40.80;18.87;;;;;;;7.52;55.84;100830.14;1780423;77;26158;-61
2021/05/09 01:17:43;;;;;;;39.67;18.73;;;;;;;7.51;55.89;100817.73;1782755;77;26013;-63
2021/05/09 01:20:16;;;;;;;37.80;19.00;;;;;;;7.52;55.98;100813.69;1772437;78;28411;-63
2021/05/09 01:22:44;;;;;;;40.85;18.62;;;;;;;7.52;56.06;100808.35;1795464;77;26370;-63
2021/05/09 01:25:12;;;;;;;35.38;18.00;;;;;;;7.52;56.13;100807.02;1794271;78;25830;-63
2021/05/09 01:27:43;;;;;;;39.55;18.17;;;;;;;7.53;56.16;100805.22;1781546;77;26161;-62
2021/05/09 01:30:13;;;;;;;38.80;18.13;;;;;;;7.53;56.25;100809.23;1783775;78;25782;-62
2021/05/09 01:32:43;;;;;;;39.25;18.55;;;;;;;7.55;56.25;100803.39;1802085;77;27260;-63
2021/05/09 01:35:12;;;;;;;35.25;17.85;;;;;;;7.55;56.35;100806.06;1788981;77;25863;-63
2021/05/09 01:37:41;;;;;;;40.28;17.57;;;;;;;7.57;56.49;100802.88;1770516;78;25746;-63
2021/05/09 01:40:13;;;;;;;35.80;17.10;;;;;;;7.59;56.53;100793.05;1797342;77;25793;-63
2021/05/09 01:42:43;;;;;;;32.15;17.60;;;;;;;7.61;56.50;100797.42;1796150;77;25816;-63
2021/05/09 01:45:14;;;;;;;37.58;16.77;;;;;;;7.61;56.59;100789.87;1781175;78;27609;-60
2021/05/09 01:47:44;;;;;;;39.78;17.48;;;;;;;7.64;56.69;100789.78;1817350;77;30405;-61
2021/05/09 01:50:16;;;;;;;37.15;17.02;;;;;;;7.64;56.74;100793.33;1771979;77;25861;-61
2021/05/09 01:52:45;;;;;;;34.33;17.15;;;;;;;7.66;56.69;100788.83;1785404;77;25857;-61
2021/05/09 01:55:18;;;;;;;37.00;17.62;;;;;;;7.65;56.82;100787.53;1792269;77;25782;-61
2021/05/09 01:57:46;;;;;;;37.63;17.67;;;;;;;7.68;56.85;100786.11;1795581;78;27712;-61
2021/05/09 02:00:18;;;;;;;32.78;17.15;;;;;;;7.68;56.88;100781.65;1788341;77;26096;-61
2021/05/09 02:02:48;;;;;;;31.02;15.65;;;;;;;7.70;56.93;100778.94;1789549;77;25855;-61
2021/05/09 02:05:19;;;;;;;27.13;15.60;;;;;;;7.73;56.95;100772.17;1783380;77;25851;-61
2021/05/09 02:07:48;;;;;;;28.10;16.02;;;;;;;7.74;56.96;100772.59;1809869;77;26738;-63
2021/05/09 02:10:16;;;;;;;27.10;14.60;;;;;;;7.76;56.96;100773.42;1811131;77;27797;-61
2021/05/09 02:12:44;;;;;;;30.02;15.48;;;;;;;7.76;56.93;100770.75;1791715;77;25790;-61
2021/05/09 02:15:13;;;;;;;24.25;13.85;;;;;;;7.74;56.98;100769.47;1790022;77;25927;-61
2021/05/09 02:17:42;;;;;;;30.68;14.10;;;;;;;7.74;56.95;100769.47;1818714;77;25890;-61
2021/05/09 02:20:12;;;;;;;24.12;13.28;;;;;;;7.76;57.00;100770.75;1793759;78;25846;-61
2021/05/09 02:22:39;;;;;;;23.47;13.25;;;;;;;7.77;57.05;100764.50;1784277;78;27300;-61
2021/05/09 02:25:09;;;;;;;24.98;13.15;;;;;;;7.79;57.04;100772.00;1793992;77;26562;-61
2021/05/09 02:27:39;;;;;;;32.48;15.00;;;;;;;7.79;57.05;100770.66;1783982;79;25859;-62
2021/05/09 02:30:10;;;;;;;29.77;14.47;;;;;;;7.78;57.11;100771.58;1775892;79;26175;-62
2021/05/09 02:32:38;;;;;;;23.77;13.00;;;;;;;7.80;57.09;100770.58;1779677;78;25764;-61
2021/05/09 02:35:08;;;;;;;21.90;12.85;;;;;;;7.80;57.06;100771.91;1791316;78;27663;-63
2021/05/09 02:37:39;;;;;;;25.90;13.10;;;;;;;7.79;57.05;100765.33;1810447;78;25862;-61
2021/05/09 02:40:08;;;;;;;26.90;14.18;;;;;;;7.78;57.13;100768.91;1773038;79;25827;-61
2021/05/09 02:42:36;;;;;;;26.40;13.55;;;;;;;7.78;57.14;100760.91;1794392;78;25771;-61
2021/05/09 02:45:10;;;;;;;25.57;12.75;;;;;;;7.79;57.15;100757.32;1808532;77;25870;-61
2021/05/09 02:47:38;;;;;;;29.23;15.18;;;;;;;7.79;57.20;100752.86;1797192;78;25971;-61
2021/05/09 02:50:10;;;;;;;23.70;12.60;;;;;;;7.80;57.21;100745.73;1826620;77;26812;-61
2021/05/09 02:52:38;;;;;;;23.67;12.80;;;;;;;7.81;57.22;100744.31;1795066;78;25832;-61
2021/05/09 02:55:07;;;;;;;23.38;12.90;;;;;;;7.79;57.25;100735.97;1786819;77;25965;-61
2021/05/09 02:57:35;;;;;;;23.22;12.35;;;;;;;7.80;57.27;100733.22;1796114;77;25885;-61
2021/05/09 03:00:07;;;;;;;24.70;12.80;;;;;;;7.81;57.32;100744.77;1803237;78;27911;-61
2021/05/09 03:02:34;;;;;;;;;;;;;;;7.81;57.35;100740.77;1809107;77;25960;-61
2021/05/09 03:05:04;;;;;;;21.57;12.47;;;;;;;7.81;57.40;100744.77;1788663;78;25895;-61
2021/05/09 03:07:34;;;;;;;25.37;12.35;;;;;;;7.81;57.43;100744.31;1787108;79;26569;-61
2021/05/09 03:10:04;;;;;;;22.32;12.82;;;;;;;7.84;57.45;100743.34;1799079;77;26473;-61
2021/05/09 03:12:31;;;;;;;27.67;12.03;;;;;;;7.89;57.48;100744.54;1776997;77;28054;-61
2021/05/09 03:15:01;;;;;;;25.27;11.95;;;;;;;7.93;57.48;100739.06;1788718;77;25820;-61
2021/05/09 03:17:32;;;;;;;24.40;13.08;;;;;;;7.96;57.48;100742.09;1789999;78;25794;-61
2021/05/09 03:20:00;;;;;;;;;;;;;;;7.96;57.50;100733.62;1804071;77;26472;-61
2021/05/09 03:22:28;;;;;;;20.95;12.20;;;;;;;7.97;57.52;100736.70;1794676;78;26331;-61
2021/05/09 03:24:56;;;;;;;22.27;12.40;;;;;;;7.94;57.51;100734.59;1711186;82;27588;-61
2021/05/09 03:27:23;;;;;;;25.27;13.40;;;;;;;7.93;57.50;100726.17;1739688;80;25901;-61
2021/05/09 03:29:52;;;;;;;20.17;11.73;;;;;;;7.92;57.61;100731.97;1754656;78;25769;-61
2021/05/09 03:32:24;;;;;;;24.05;13.45;;;;;;;7.94;57.67;100734.13;1788391;78;25841;-61
2021/05/09 03:34:51;;;;;;;;;;;;;;;7.94;57.72;100735.47;1800294;77;26361;-61
2021/05/09 03:37:21;;;;;;;21.12;12.23;;;;;;;7.95;57.82;100729.20;1791792;77;28386;-61
2021/05/09 03:39:48;;;;;;;24.80;12.85;;;;;;;7.95;57.78;100722.53;1790596;77;26224;-63
2021/05/09 03:42:16;;;;;;;22.82;12.43;;;;;;;7.97;57.79;100721.16;1787771;78;25887;-61
2021/05/09 03:44:44;;;;;;;23.45;12.78;;;;;;;7.98;57.84;100718.90;1787621;77;26318;-61
2021/05/09 03:47:14;;;;;;;26.68;13.43;;;;;;;7.98;57.88;100721.11;1808113;77;26432;-63
2021/05/09 03:49:42;;;;;;;23.55;13.48;;;;;;;7.99;57.91;100726.86;1780343;77;28798;-61
2021/05/09 03:52:10;;;;;;;21.97;12.15;;;;;;;7.99;57.92;100720.19;1797644;77;25796;-61
2021/05/09 03:54:37;;;;;;;22.15;12.80;;;;;;;7.98;57.97;100724.23;1800644;77;25924;-61
2021/05/09 03:57:05;;;;;;;23.87;11.95;;;;;;;8.00;58.01;100725.06;1792360;77;26102;-61
2021/05/09 03:59:33;;;;;;;21.60;12.05;;;;;;;8.01;58.07;100726.35;1791385;77;26526;-61
2021/05/09 04:02:03;;;;;;;23.50;12.18;;;;;;;8.04;58.13;100731.59;1791740;77;27839;-61
2021/05/09 04:04:30;;;;;;;20.62;11.55;;;;;;;8.10;58.15;100730.52;1794394;78;25958;-61
2021/05/09 04:07:00;;;;;;;20.37;11.50;;;;;;;8.12;58.17;100732.22;1789948;77;25825;-61
2021/05/09 04:09:28;;;;;;;24.63;12.70;;;;;;;8.17;58.19;100737.41;1793755;78;26557;-61
2021/05/09 04:11:56;;;;;;;20.25;11.10;;;;;;;8.24;58.29;100727.41;1784014;78;25982;-62
2021/05/09 04:14:23;;;;;;;21.93;10.98;;;;;;;8.29;58.28;100733.48;1782248;78;27788;-62
2021/05/09 04:16:53;;;;;;;18.62;10.72;;;;;;;8.34;58.34;100730.23;1791711;78;25809;-61
2021/05/09 04:19:20;;;;;;;21.00;10.72;;;;;;;8.36;58.24;100723.91;1781864;79;26386;-61
2021/05/09 04:21:48;;;;;;;24.47;13.10;;;;;;;8.36;58.30;100715.90;1797742;77;25729;-62
2021/05/09 04:24:16;;;;;;;24.18;11.75;;;;;;;8.39;58.38;100711.80;1787458;77;25884;-61
2021/05/09 04:26:44;;;;;;;18.80;11.35;;;;;;;8.40;58.39;100712.20;1788966;78;28277;-61
2021/05/09 04:29:13;;;;;;;20.20;11.10;;;;;;;8.38;58.38;100709.17;1744798;79;25781;-60
2021/05/09 04:31:41;;;;;;;24.12;11.70;;;;;;;8.36;58.36;100706.55;1790244;78;25744;-60
2021/05/09 04:34:11;;;;;;;20.20;11.05;;;;;;;8.37;58.41;100706.09;1792376;78;26038;-61
2021/05/09 04:36:39;;;;;;;25.25;13.15;;;;;;;8.38;58.43;100701.16;1794718;77;25869;-61
2021/05/09 04:39:06;;;;;;;20.15;11.22;;;;;;;8.43;58.46;100697.87;1792905;78;27531;-60
2021/05/09 04:41:37;;;;;;;18.57;10.78;;;;;;;8.46;58.41;100708.45;1791489;77;26061;-61
2021/05/09 04:44:07;;;;;;;23.50;12.40;;;;;;;8.49;58.45;100705.68;1790107;77;26516;-61
2021/05/09 04:46:35;;;;;;;19.95;10.68;;;;;;;8.60;58.49;100702.18;1787369;78;26618;-61
2021/05/09 04:49:03;;;;;;;19.87;10.65;;;;;;;8.67;58.47;100698.37;1795280;77;25810;-61
2021/05/09 04:51:34;;;;;;;22.00;11.38;;;;;;;8.76;58.49;100698.05;1778881;77;26124;-60
2021/05/09 04:54:03;;;;;;;23.80;11.22;;;;;;;8.84;58.45;100695.58;1788254;77;26026;-61
2021/05/09 04:56:37;;;;;;;24.10;12.13;;;;;;;8.87;58.43;100700.34;1736765;80;25935;-61
2021/05/09 04:59:05;;;;;;;20.55;11.33;;;;;;;8.94;58.42;100706.34;1714986;81;25829;-61
2021/05/09 05:01:33;;;;;;;20.23;11.22;;;;;;;9.02;58.45;100704.27;1779073;77;25883;-61
2021/05/09 05:04:03;;;;;;;17.80;10.65;;;;;;;9.06;58.38;100704.11;1796222;77;27862;-60
2021/05/09 05:06:31;;;;;;;21.00;10.18;;;;;;;9.11;58.37;100706.16;1792411;78;25791;-61
2021/05/09 05:09:00;;;;;;;20.62;10.50;;;;;;;9.14;58.34;100697.61;1789958;78;26416;-62
2021/05/09 05:11:28;;;;;;;21.55;10.48;;;;;;;9.18;58.36;100697.44;1751695;79;26182;-62
2021/05/09 05:13:56;;;;;;;17.82;10.32;;;;;;;9.22;58.30;100699.53;1767747;78;25789;-61
2021/05/09 05:16:24;;;;;;;19.07;9.40;;;;;;;9.24;58.27;100699.89;1779475;77;27793;-61
2021/05/09 05:18:54;;;;;;;20.52;10.20;;;;;;;9.26;58.24;100690.00;1776150;77;25751;-61
2021/05/09 05:21:22;;;;;;;20.12;8.93;;;;;;;9.24;58.17;100683.84;1800759;78;25820;-61
2021/05/09 05:23:49;;;;;;;15.88;8.55;;;;;;;9.24;58.14;100678.49;1790717;77;25770;-61
2021/05/09 05:26:19;;;;;;;21.95;9.73;;;;;;;9.23;58.13;100675.41;1784665;77;26435;-61
2021/05/09 05:28:49;;;;;;;17.65;7.67;;;;;;;9.22;58.11;100677.67;1753201;79;27766;-62
2021/05/09 05:31:16;;;;;;;18.00;9.35;;;;;;;9.21;58.10;100673.26;1739368;79;25845;-63
2021/05/09 05:33:46;;;;;;;20.32;8.38;;;;;;;9.22;58.07;100677.67;1756125;78;25985;-61
2021/05/09 05:36:13;;;;;;;15.08;8.55;;;;;;;9.22;58.04;100682.16;1739633;79;25919;-61
2021/05/09 05:38:41;;;;;;;14.43;8.23;;;;;;;9.25;58.01;100687.39;1752111;80;25763;-62
2021/05/09 05:41:09;;;;;;;13.10;8.03;;;;;;;9.26;58.02;100680.64;1739798;80;27769;-61
2021/05/09 05:43:39;;;;;;;15.18;7.28;;;;;;;9.29;58.01;100681.88;1733345;80;25846;-61
2021/05/09 05:46:06;;;;;;;16.42;8.08;;;;;;;9.32;57.94;100685.77;1735745;79;25904;-61
2021/05/09 05:48:34;;;;;;;12.95;7.00;;;;;;;9.39;57.95;100680.59;1751838;79;25803;-61
2021/05/09 05:51:02;;;;;;;14.63;7.58;;;;;;;9.47;57.95;100674.95;1751572;78;26637;-62
2021/05/09 05:53:31;;;;;;;14.65;7.42;;;;;;;9.57;57.92;100675.47;1738656;79;27832;-62
2021/05/09 05:55:58;;;;;;;14.58;7.25;;;;;;;9.68;57.91;100677.27;1745867;79;25891;-61
2021/05/09 05:58:28;;;;;;;13.72;6.85;;;;;;;9.80;57.87;100678.59;1734630;79;25871;-62
2021/05/09 06:00:55;;;;;;;14.50;7.03;;;;;;;9.93;57.84;100675.83;1726132;79;25897;-61
2021/05/09 06:03:24;;;;;;;23.73;7.90;;;;;;;10.06;57.78;100680.63;1737140;80;25973;-62
2021/05/09 06:05:54;;;;;;;13.68;7.40;;;;;;;10.20;57.68;100669.38;1736973;79;27720;-62
2021/05/09 06:08:28;;;;;;;11.73;7.15;;;;;;;10.33;57.64;100675.97;1728629;80;25804;-62
2021/05/09 06:11:00;;;;;;;11.50;6.60;;;;;;;10.44;57.47;100675.48;1726054;80;25750;-62
2021/05/09 06:13:29;;;;;;;13.35;6.80;;;;;;;10.55;57.41;100675.03;1741392;81;25644;-62
2021/05/09 06:15:57;;;;;;;9.80;6.05;;;;;;;10.67;57.39;100677.19;1735412;79;25762;-62
2021/05/09 06:18:25;;;;;;;11.43;5.87;;;;;;;10.78;57.30;100674.04;1727130;81;27820;-62
2021/05/09 06:20:55;;;;;;;13.60;6.42;;;;;;;10.88;57.22;100678.93;1733641;79;26455;-62
2021/05/09 06:23:26;;;;;;;14.70;6.15;;;;;;;10.96;56.89;100667.86;1727458;81;26626;-63
2021/05/09 06:25:56;;;;;;;12.20;6.42;;;;;;;11.05;56.94;100663.43;1720902;80;26442;-63
2021/05/09 06:28:26;;;;;;;9.65;5.72;;;;;;;11.14;56.91;100661.67;1744961;79;26424;-61
2021/05/09 06:30:54;;;;;;;11.83;5.92;;;;;;;11.24;56.82;100664.34;1768053;79;27396;-62
2021/05/09 06:33:21;;;;;;;15.85;6.00;;;;;;;11.33;56.74;100659.89;1768447;79;26273;-63
2021/05/09 06:35:50;;;;;;;9.23;5.78;;;;;;;11.43;56.65;100654.09;1772848;79;25796;-62
2021/05/09 06:38:18;;;;;;;9.00;5.42;;;;;;;11.52;56.57;100664.41;1753666;79;25848;-62
2021/05/09 06:40:48;;;;;;;21.60;6.30;;;;;;;11.62;56.43;100653.16;1688679;82;26350;-62
2021/05/09 06:43:17;;;;;;;10.58;5.40;;;;;;;11.74;56.39;100658.42;1735878;80;26051;-62
2021/05/09 06:45:47;;;;;;;12.20;5.30;;;;;;;11.88;56.19;100656.45;1734045;79;25847;-62
2021/05/09 06:48:15;;;;;;;11.40;5.85;;;;;;;11.97;56.02;100651.97;1722322;81;26360;-62
2021/05/09 06:50:45;;;;;;;9.45;6.00;;;;;;;12.08;55.96;100655.47;1723812;79;26560;-62
2021/05/09 06:53:12;;;;;;;10.45;5.87;;;;;;;12.16;55.89;100647.90;1774641;78;25852;-61
2021/05/09 06:55:43;;;;;;;11.68;5.50;;;;;;;12.26;55.81;100649.19;1772078;79;27769;-62
2021/05/09 06:58:11;;;;;;;8.30;4.83;;;;;;;12.37;55.69;100645.48;1765615;78;26093;-62
2021/05/09 07:00:39;;;;;;;13.68;5.20;;;;;;;12.44;55.34;100638.84;1766718;79;25793;-62
2021/05/09 07:03:09;;;;;;;9.48;4.67;;;;;;;12.53;55.35;100639.72;1751197;78;25950;-62
2021/05/09 07:05:37;;;;;;;9.18;5.15;;;;;;;12.62;55.32;100637.03;1778937;78;25815;-62
2021/05/09 07:08:06;;;;;;;9.08;5.47;;;;;;;12.73;55.20;100639.16;1782135;78;27647;-62
2021/05/09 07:10:37;;;;;;;11.93;5.62;;;;;;;12.86;55.01;100635.75;1785652;78;25860;-62
2021/05/09 07:13:05;;;;;;;9.50;5.60;;;;;;;12.93;54.64;100639.84;1780664;78;26461;-62
2021/05/09 07:15:35;;;;;;;9.33;4.75;;;;;;;13.00;54.66;100637.19;1788077;78;25845;-62
2021/05/09 07:20:44;;;;;;;9.50;5.35;;;;;;;13.24;54.49;100635.03;1801451;78;27310;-62
2021/05/09 07:23:10;;;;;;;10.25;5.30;;;;;;;13.37;54.32;100638.41;1783077;77;25823;-63
2021/05/09 07:25:40;;;;;;;10.13;5.15;;;;;;;13.46;54.17;100640.59;1801808;77;25789;-62
2021/05/09 07:28:12;;;;;;;11.57;5.53;;;;;;;13.56;54.17;100638.64;1800977;78;25878;-63
2021/05/09 07:30:43;;;;;;;12.58;4.78;;;;;;;13.69;54.05;100642.00;1753922;79;26148;-63
2021/05/09 07:33:13;;;;;;;15.50;6.00;;;;;;;13.77;53.89;100649.17;1717058;81;27745;-63
2021/05/09 07:35:43;;;;;;;10.13;5.17;;;;;;;13.86;53.93;100648.17;1738040;80;25931;-63
2021/05/09 07:38:14;;;;;;;8.38;5.22;;;;;;;13.95;53.73;100646.30;1739416;81;25851;-63
2021/05/09 07:40:46;;;;;;;11.17;4.83;;;;;;;14.05;53.58;100644.42;1727228;80;26536;-63
2021/05/09 07:43:15;;;;;;;11.22;5.10;;;;;;;14.12;53.34;100645.33;1720199;81;25976;-63
2021/05/09 07:45:45;;;;;;;14.63;5.05;;;;;;;14.20;53.46;100646.23;1718169;82;27977;-63
2021/05/09 07:48:15;;;;;;;10.85;5.20;;;;;;;14.24;53.36;100641.92;1731843;80;25902;-63
2021/05/09 07:50:44;;;;;;;12.93;4.65;;;;;;;14.29;53.23;100645.70;1719748;82;26504;-62
2021/05/09 07:53:14;;;;;;;11.53;4.55;;;;;;;14.33;53.19;100645.04;1714057;80;26711;-63
2021/05/09 07:55:42;;;;;;;11.97;4.10;;;;;;;14.38;53.01;100647.85;1726998;80;26552;-63
2021/05/09 07:58:20;;;;;;;11.35;4.17;;;;;;;14.47;52.89;100650.03;1730505;81;27724;-63
2021/05/09 08:00:50;;;;;;;8.10;4.05;;;;;;;14.53;52.66;100650.16;1721947;80;26722;-64
2021/05/09 08:03:19;;;;;;;9.95;4.95;;;;;;;14.58;52.37;100644.88;1739742;80;25831;-62
2021/05/09 08:05:47;;;;;;;8.90;4.75;;;;;;;14.67;52.28;100641.23;1722250;81;26070;-62
2021/05/09 08:08:17;;;;;;;8.55;4.65;;;;;;;14.78;52.12;100637.41;1704190;82;25879;-63
2021/05/09 08:10:45;;;;;;;8.10;4.17;;;;;;;14.84;51.84;100635.69;1726212;80;27921;-63
2021/05/09 08:13:14;;;;;;;9.00;3.95;;;;;;;14.89;51.74;100631.74;1710880;81;25839;-62
2021/05/09 08:15:42;;;;;;;10.15;4.33;;;;;;;14.99;51.78;100626.64;1767550;78;26492;-62
2021/05/09 08:18:10;;;;;;;11.68;4.30;;;;;;;15.08;51.75;100628.77;1786381;79;25817;-62
2021/05/09 08:20:38;;;;;;;9.05;4.05;;;;;;;15.17;51.65;100624.63;1755327;79;25860;-62
2021/05/09 08:23:06;;;;;;;9.33;4.33;;;;;;;15.28;51.58;100628.01;1786215;77;27439;-62
2021/05/09 08:25:37;;;;;;;7.00;3.72;;;;;;;15.38;51.53;100622.41;1791662;78;25883;-62
2021/05/09 08:28:07;;;;;;;;;;;;;;;15.48;51.46;100627.61;1785438;78;26358;-63
2021/05/09 08:30:34;;;;;;;6.37;3.37;;;;;;;15.60;51.33;100631.39;1755846;80;26633;-63
2021/05/09 08:33:02;;;;;;;4.75;3.02;;;;;;;15.68;51.04;100626.33;1766610;79;26479;-63
2021/05/09 08:35:30;;;;;;;7.45;3.80;;;;;;;15.73;50.71;100628.25;1742287;80;28319;-63
2021/05/09 08:37:58;;;;;;;7.15;3.67;;;;;;;15.80;50.86;100626.40;1749762;79;25781;-63
2021/05/09 08:40:27;;;;;;;7.90;3.67;;;;;;;15.90;49.97;100620.78;1748818;79;25890;-63
2021/05/09 08:42:55;;;;;;;6.00;3.37;;;;;;;16.03;50.32;100624.02;1748989;79;26028;-63
2021/05/09 08:45:23;;;;;;;11.05;4.55;;;;;;;16.12;50.03;100620.22;1734375;81;25800;-64
2021/05/09 08:47:53;;;;;;;5.03;2.90;;;;;;;16.17;50.05;100615.38;1716643;81;27179;-63
2021/05/09 08:50:25;;;;;;;6.58;3.40;;;;;;;16.26;49.75;100616.59;1745552;79;25985;-63
2021/05/09 08:52:55;;;;;;;5.72;3.05;;;;;;;16.34;49.54;100616.95;1779452;78;25909;-62
2021/05/09 08:55:27;;;;;;;8.55;3.60;;;;;;;16.40;49.27;100609.77;1766755;79;25966;-63
2021/05/09 08:58:00;;;;;;;9.90;3.52;;;;;;;16.50;49.26;100612.71;1764772;79;25806;-63
2021/05/09 09:00:29;;;;;;;5.53;3.62;;;;;;;16.62;49.24;100614.58;1746286;79;27962;-63
2021/05/09 09:03:02;;;;;;;10.55;3.65;;;;;;;16.74;49.09;100618.31;1760230;79;26357;-63
2021/05/09 09:05:41;;;;;;;7.25;3.85;;;;;;;16.86;48.60;100612.91;1749114;79;25799;-62
2021/05/09 09:08:10;;;;;;;;;;;;;;;16.94;48.14;100614.21;1679418;83;25840;-64
2021/05/09 09:10:48;;;;;;;7.90;3.10;;;;;;;17.01;48.15;100611.45;1685998;83;25840;-63
2021/05/09 09:13:28;;;;;;;8.25;4.28;;;;;;;17.08;46.67;100613.62;1684403;82;28928;-62
2021/05/09 09:16:07;;;;;;;7.75;3.02;;;;;;;17.22;47.80;100609.06;1685830;82;25829;-62
2021/05/09 09:18:41;;;;;;;7.20;3.52;;;;;;;17.34;47.52;100616.31;1656096;83;26768;-61
2021/05/09 09:21:25;;;;;;;7.40;3.05;;;;;;;17.42;47.40;100609.85;1696983;83;25849;-62
2021/05/09 09:24:07;;;;;;;5.50;2.87;;;;;;;17.51;47.11;100606.47;1658347;82;26430;-62
2021/05/09 09:26:45;;;;;;;8.03;3.65;;;;;;;17.60;46.91;100595.45;1698633;82;25894;-62
2021/05/09 09:29:47;;;;;;;;;;;;;;;;;;;;;
2021/05/09 09:32:10;;;;;;;10.78;2.65;;;;;;;17.72;46.05;100592.73;1736877;79;25793;-62
2021/05/09 09:34:41;;;;;;;5.00;2.70;;;;;;;17.84;46.24;100587.77;1737403;81;25903;-63
2021/05/09 09:37:12;;;;;;;4.85;2.77;;;;;;;17.97;45.81;100582.28;1750410;79;25803;-62
2021/05/09 09:39:59;;;;;;;5.45;2.47;;;;;;;18.07;45.49;100579.75;1737774;80;27403;-62
2021/05/09 09:42:39;;;;;;;2.87;2.20;;;;;;;18.16;45.51;100584.48;1744429;80;25843;-62
2021/05/09 09:45:28;;;;;;;4.65;2.87;;;;;;;18.24;44.16;100581.15;1730930;80;26498;-62
2021/05/09 09:48:04;;;;;;;6.70;2.52;;;;;;;18.28;44.45;100576.73;1739699;79;25861;-63
2021/05/09 09:50:46;;;;;;;6.60;2.60;;;;;;;18.31;44.31;100576.98;1726520;81;25938;-63
2021/05/09 09:53:33;;;;;;;3.98;2.20;;;;;;;18.41;43.99;100568.52;1722764;81;28603;-61
2021/05/09 09:56:21;;;;;;;7.15;2.35;;;;;;;18.52;43.81;100572.63;1737249;80;25815;-61
2021/05/09 09:58:55;;;;;;;4.58;1.98;;;;;;;18.63;43.48;100566.39;1735657;79;25848;-63
2021/05/09 10:01:30;;;;;;;2.62;2.02;;;;;;;18.69;43.47;100557.27;1729463;80;25784;-63
2021/05/09 10:04:07;;;;;;;3.15;2.42;;;;;;;18.80;43.50;100564.58;1743122;79;25768;-63
2021/05/09 10:06:40;;;;;;;3.20;2.02;;;;;;;18.89;42.99;100562.98;1735876;80;26613;-62
2021/05/09 10:09:11;;;;;;;3.12;2.10;;;;;;;18.97;42.30;100557.31;1727868;80;27096;-62
2021/05/09 10:11:41;;;;;;;8.90;2.42;;;;;;;19.04;42.52;100563.13;1735640;81;26550;-62
2021/05/09 10:14:10;;;;;;;3.75;1.98;;;;;;;19.14;41.83;100557.33;1731853;80;25858;-62
2021/05/09 10:16:50;;;;;;;3.05;1.65;;;;;;;19.21;41.13;100565.84;1737289;80;25830;-62
2021/05/09 10:19:27;;;;;;;3.30;1.67;;;;;;;19.27;41.71;100573.02;1731093;80;26566;-62
2021/05/09 10:21:56;;;;;;;4.70;1.67;;;;;;;19.37;41.02;100567.69;1740663;79;26530;-62
2021/05/09 10:24:26;;;;;;;6.83;2.17;;;;;;;19.46;40.89;100568.30;1733713;80;25939;-62
2021/05/09 10:27:06;;;;;;;4.43;2.50;;;;;;;19.55;39.68;100561.28;1735820;79;26450;-62
2021/05/09 10:29:39;;;;;;;4.72;2.00;;;;;;;19.62;40.38;100559.80;1768092;77;25998;-62
2021/05/09 10:32:28;;;;;;;3.98;1.87;;;;;;;19.70;40.40;100564.97;1796146;77;27764;-63
2021/05/09 10:35:01;;;;;;;4.75;2.12;;;;;;;19.75;39.52;100551.85;1798267;77;25825;-62
2021/05/09 10:37:50;;;;;;;9.75;2.65;;;;;;;19.85;39.53;100545.15;1794188;77;26561;-62
2021/05/09 10:40:41;;;;;;;6.67;2.15;;;;;;;19.87;39.67;100544.52;1801675;78;26389;-62
2021/05/09 10:43:16;;;;;;;6.08;1.82;;;;;;;19.92;38.24;100531.41;1800498;77;25802;-62
2021/05/09 10:45:49;;;;;;;3.87;1.90;;;;;;;20.01;38.38;100537.92;1808578;77;27348;-62
2021/05/09 10:48:29;;;;;;;3.02;1.95;;;;;;;20.07;37.70;100530.11;1797363;78;25853;-62
2021/05/09 10:51:11;;;;;;;7.47;2.08;;;;;;;20.14;37.93;100523.65;1751552;80;25879;-63
2021/05/09 10:53:40;;;;;;;4.50;1.52;;;;;;;20.23;38.33;100531.03;1802909;78;25864;-62
2021/05/09 10:56:19;;;;;;;28.37;3.10;;;;;;;20.32;37.72;100519.35;1751513;79;25779;-62
2021/05/09 10:58:53;;;;;;;2.47;1.60;;;;;;;20.50;38.14;100536.49;1716649;81;27722;-63
2021/05/09 11:01:34;;;;;;;3.17;1.75;;;;;;;20.65;37.67;100519.69;1728635;82;26087;-64
2021/05/09 11:04:14;;;;;;;5.03;2.12;;;;;;;20.75;36.79;100519.74;1751909;79;26627;-62
2021/05/09 11:06:51;;;;;;;3.55;1.30;;;;;;;20.82;36.67;100525.48;1740193;80;25835;-62
2021/05/09 11:09:26;;;;;;;2.15;1.42;;;;;;;20.80;36.00;100516.11;1734504;80;26038;-62
2021/05/09 11:11:59;;;;;;;3.75;1.90;;;;;;;20.87;35.99;100517.27;1736906;80;28544;-62
2021/05/09 11:14:29;;;;;;;3.83;1.72;;;;;;;20.96;36.29;100511.50;1745993;80;25868;-62
2021/05/09 11:17:12;;;;;;;4.42;2.12;;;;;;;21.11;36.12;100514.72;1722836;80;25997;-62
2021/05/09 11:19:48;;;;;;;7.28;1.50;;;;;;;21.24;36.51;100517.61;1748738;80;25801;-62
2021/05/09 11:22:21;;;;;;;2.98;1.20;;;;;;;21.35;36.19;100510.69;1744901;80;25916;-62
2021/05/09 11:24:55;;;;;;;6.20;1.42;;;;;;;21.43;35.77;100496.86;1739525;79;27247;-63
2021/05/09 11:27:26;;;;;;;6.28;1.35;;;;;;;21.53;35.55;100491.80;1742228;79;26524;-63
2021/05/09 11:29:54;;;;;;;;;;;;;;;21.60;35.94;100503.00;1740663;80;26345;-63
2021/05/09 11:32:24;;;;;;;5.75;1.45;;;;;;;21.68;35.34;100499.06;1724522;81;25903;-62
2021/05/09 11:34:59;;;;;;;6.00;2.05;;;;;;;21.73;35.49;100494.05;1756780;79;26567;-62
2021/05/09 11:37:33;;;;;;;6.40;2.20;;;;;;;21.83;35.29;100498.16;1745310;81;27452;-63
2021/05/09 11:40:08;;;;;;;1.85;1.67;;;;;;;21.95;35.42;100494.28;1748556;79;25811;-63
2021/05/09 11:42:36;;;;;;;6.92;1.70;;;;;;;22.08;35.48;100500.36;1776984;78;26311;-63